sensor_id;sensor_type;location;lat;lon;timestamp;pressure;altitude;pressure_sealevel;temperature;humidity
61055;BME280;46939;48.940;8.258;2022-09-29T00:01:22;98885.84;;;12.69;58.56
61055;BME280;46939;48.940;8.258;2022-09-29T00:03:51;98887.13;;;12.66;58.72
61055;BME280;46939;48.940;8.258;2022-09-29T00:06:20;98881.13;;;12.59;58.83
61055;BME280;46939;48.940;8.258;2022-09-29T00:08:48;98879.53;;;12.58;58.45
61055;BME280;46939;48.940;8.258;2022-09-29T00:11:18;98883.69;;;12.54;58.39
61055;BME280;46939;48.940;8.258;2022-09-29T00:13:46;98875.47;;;12.56;58.90
61055;BME280;46939;48.940;8.258;2022-09-29T00:16:17;98876.53;;;12.55;58.73
61055;BME280;46939;48.940;8.258;2022-09-29T00:18:46;98881.59;;;12.56;58.53
61055;BME280;46939;48.940;8.258;2022-09-29T00:21:16;98883.47;;;12.56;58.99
61055;BME280;46939;48.940;8.258;2022-09-29T00:23:46;98872.59;;;12.57;58.72
61055;BME280;46939;48.940;8.258;2022-09-29T00:26:16;98873.06;;;12.54;58.61
61055;BME280;46939;48.940;8.258;2022-09-29T00:28:47;98873.16;;;12.59;58.74
61055;BME280;46939;48.940;8.258;2022-09-29T00:31:20;98875.47;;;12.56;59.18
61055;BME280;46939;48.940;8.258;2022-09-29T00:33:49;98864.44;;;12.47;59.34
61055;BME280;46939;48.940;8.258;2022-09-29T00:36:19;98865.97;;;12.43;59.24
61055;BME280;46939;48.940;8.258;2022-09-29T00:38:49;98864.53;;;12.52;59.60
61055;BME280;46939;48.940;8.258;2022-09-29T00:41:20;98862.34;;;12.49;59.68
61055;BME280;46939;48.940;8.258;2022-09-29T00:43:55;98855.75;;;12.52;59.69
61055;BME280;46939;48.940;8.258;2022-09-29T00:46:32;98863.59;;;12.58;59.42
61055;BME280;46939;48.940;8.258;2022-09-29T00:49:04;98856.19;;;12.60;59.56
61055;BME280;46939;48.940;8.258;2022-09-29T00:51:36;98856.69;;;12.57;60.15
61055;BME280;46939;48.940;8.258;2022-09-29T00:54:07;98849.78;;;12.73;59.61
61055;BME280;46939;48.940;8.258;2022-09-29T00:56:39;98851.72;;;12.78;59.82
61055;BME280;46939;48.940;8.258;2022-09-29T00:59:11;98859.78;;;12.83;59.71
61055;BME280;46939;48.940;8.258;2022-09-29T01:01:44;98859.78;;;12.83;59.72
61055;BME280;46939;48.940;8.258;2022-09-29T01:04:16;98860.75;;;12.77;59.85
61055;BME280;46939;48.940;8.258;2022-09-29T01:06:49;98857.44;;;12.86;59.69
61055;BME280;46939;48.940;8.258;2022-09-29T01:09:22;98857.44;;;12.86;59.77
61055;BME280;46939;48.940;8.258;2022-09-29T01:11:54;98864.88;;;12.84;60.21
61055;BME280;46939;48.940;8.258;2022-09-29T01:14:23;98866.78;;;12.89;59.99
61055;BME280;46939;48.940;8.258;2022-09-29T01:16:55;98855.44;;;12.93;59.64
61055;BME280;46939;48.940;8.258;2022-09-29T01:19:30;98858.50;;;13.02;59.54
61055;BME280;46939;48.940;8.258;2022-09-29T01:22:13;98853.28;;;13.07;59.55
61055;BME280;46939;48.940;8.258;2022-09-29T01:24:56;98850.84;;;13.06;59.51
61055;BME280;46939;48.940;8.258;2022-09-29T01:27:52;98860.94;;;13.04;59.70
61055;BME280;46939;48.940;8.258;2022-09-29T01:30:42;98863.13;;;13.07;59.43
61055;BME280;46939;48.940;8.258;2022-09-29T01:33:23;98864.00;;;13.12;59.13
61055;BME280;46939;48.940;8.258;2022-09-29T01:36:02;98863.75;;;13.14;59.00
61055;BME280;46939;48.940;8.258;2022-09-29T01:38:43;98866.66;;;13.12;59.53
61055;BME280;46939;48.940;8.258;2022-09-29T01:41:25;98868.25;;;13.13;59.41
61055;BME280;46939;48.940;8.258;2022-09-29T01:43:59;98863.53;;;13.15;59.28
61055;BME280;46939;48.940;8.258;2022-09-29T01:46:35;98860.28;;;13.13;59.12
61055;BME280;46939;48.940;8.258;2022-09-29T01:49:06;98867.53;;;13.18;59.49
61055;BME280;46939;48.940;8.258;2022-09-29T01:51:38;98868.38;;;13.18;59.58
61055;BME280;46939;48.940;8.258;2022-09-29T01:54:12;98872.38;;;13.21;59.54
61055;BME280;46939;48.940;8.258;2022-09-29T01:56:45;98871.31;;;13.22;59.70
61055;BME280;46939;48.940;8.258;2022-09-29T01:59:18;98873.31;;;13.27;59.78
61055;BME280;46939;48.940;8.258;2022-09-29T02:01:55;98865.88;;;13.29;59.41
61055;BME280;46939;48.940;8.258;2022-09-29T02:04:30;98871.78;;;13.31;59.96
61055;BME280;46939;48.940;8.258;2022-09-29T02:07:02;98871.38;;;13.39;59.29
61055;BME280;46939;48.940;8.258;2022-09-29T02:09:38;98870.31;;;13.40;59.55
61055;BME280;46939;48.940;8.258;2022-09-29T02:12:07;98867.97;;;13.43;59.64
61055;BME280;46939;48.940;8.258;2022-09-29T02:14:41;98858.41;;;13.42;59.73
61055;BME280;46939;48.940;8.258;2022-09-29T02:17:15;98871.59;;;13.37;59.65
61055;BME280;46939;48.940;8.258;2022-09-29T02:19:47;98863.94;;;13.41;60.06
61055;BME280;46939;48.940;8.258;2022-09-29T02:22:17;98868.03;;;13.49;59.73
61055;BME280;46939;48.940;8.258;2022-09-29T02:24:46;98867.25;;;13.48;59.44
61055;BME280;46939;48.940;8.258;2022-09-29T02:27:16;98865.97;;;13.51;59.51
61055;BME280;46939;48.940;8.258;2022-09-29T02:29:46;98853.13;;;13.48;59.53
61055;BME280;46939;48.940;8.258;2022-09-29T02:32:18;98860.56;;;13.46;59.68
61055;BME280;46939;48.940;8.258;2022-09-29T02:34:49;98858.06;;;13.39;59.88
61055;BME280;46939;48.940;8.258;2022-09-29T02:37:35;98862.66;;;13.27;59.98
61055;BME280;46939;48.940;8.258;2022-09-29T02:40:15;98860.94;;;13.20;60.30
61055;BME280;46939;48.940;8.258;2022-09-29T02:42:59;98850.25;;;13.32;59.59
61055;BME280;46939;48.940;8.258;2022-09-29T02:45:40;98856.94;;;13.35;59.80
61055;BME280;46939;48.940;8.258;2022-09-29T02:48:33;98863.06;;;13.35;59.41
61055;BME280;46939;48.940;8.258;2022-09-29T02:51:11;98865.47;;;13.37;59.48
61055;BME280;46939;48.940;8.258;2022-09-29T02:53:51;98856.94;;;13.35;58.93
61055;BME280;46939;48.940;8.258;2022-09-29T02:56:26;98863.81;;;13.31;58.94
61055;BME280;46939;48.940;8.258;2022-09-29T02:58:59;98867.00;;;13.33;59.08
61055;BME280;46939;48.940;8.258;2022-09-29T03:01:30;98867.50;;;13.30;59.30
61055;BME280;46939;48.940;8.258;2022-09-29T03:04:02;98863.94;;;13.24;59.06
61055;BME280;46939;48.940;8.258;2022-09-29T03:06:32;98875.41;;;13.25;59.17
61055;BME280;46939;48.940;8.258;2022-09-29T03:09:01;98857.44;;;13.32;59.25
61055;BME280;46939;48.940;8.258;2022-09-29T03:11:30;98853.38;;;13.29;59.35
61055;BME280;46939;48.940;8.258;2022-09-29T03:13:59;98855.81;;;13.31;59.49
61055;BME280;46939;48.940;8.258;2022-09-29T03:16:28;98846.00;;;13.31;59.07
61055;BME280;46939;48.940;8.258;2022-09-29T03:18:56;98841.72;;;13.30;59.38
61055;BME280;46939;48.940;8.258;2022-09-29T03:21:28;98853.72;;;13.33;59.12
61055;BME280;46939;48.940;8.258;2022-09-29T03:23:57;98847.84;;;13.31;59.10
61055;BME280;46939;48.940;8.258;2022-09-29T03:26:25;98848.44;;;13.21;59.43
61055;BME280;46939;48.940;8.258;2022-09-29T03:28:54;98848.44;;;13.21;59.38
61055;BME280;46939;48.940;8.258;2022-09-29T03:31:23;98847.91;;;13.19;58.96
61055;BME280;46939;48.940;8.258;2022-09-29T03:33:51;98838.16;;;13.08;59.59
61055;BME280;46939;48.940;8.258;2022-09-29T03:36:20;98841.34;;;13.10;59.87
61055;BME280;46939;48.940;8.258;2022-09-29T03:38:51;98835.22;;;13.09;59.80
61055;BME280;46939;48.940;8.258;2022-09-29T03:41:19;98842.25;;;13.15;59.54
61055;BME280;46939;48.940;8.258;2022-09-29T03:43:48;98839.66;;;13.04;59.31
61055;BME280;46939;48.940;8.258;2022-09-29T03:46:17;98833.44;;;12.98;59.39
61055;BME280;46939;48.940;8.258;2022-09-29T03:48:45;98843.34;;;13.03;59.60
61055;BME280;46939;48.940;8.258;2022-09-29T03:51:14;98834.59;;;13.02;59.43
61055;BME280;46939;48.940;8.258;2022-09-29T03:53:42;98837.81;;;13.04;59.54
61055;BME280;46939;48.940;8.258;2022-09-29T03:56:14;98846.84;;;13.03;59.44
61055;BME280;46939;48.940;8.258;2022-09-29T03:58:42;98845.00;;;13.04;59.63
61055;BME280;46939;48.940;8.258;2022-09-29T04:01:11;98856.66;;;13.03;59.44
61055;BME280;46939;48.940;8.258;2022-09-29T04:03:41;98860.28;;;12.97;59.15
61055;BME280;46939;48.940;8.258;2022-09-29T04:06:10;98854.63;;;12.93;59.26
61055;BME280;46939;48.940;8.258;2022-09-29T04:08:38;98857.38;;;12.98;59.48
61055;BME280;46939;48.940;8.258;2022-09-29T04:11:07;98856.72;;;12.91;59.17
61055;BME280;46939;48.940;8.258;2022-09-29T04:13:38;98865.81;;;12.95;58.85
61055;BME280;46939;48.940;8.258;2022-09-29T04:16:07;98862.69;;;12.98;58.84
61055;BME280;46939;48.940;8.258;2022-09-29T04:18:35;98864.22;;;12.94;59.17
61055;BME280;46939;48.940;8.258;2022-09-29T04:21:05;98859.47;;;12.96;59.29
61055;BME280;46939;48.940;8.258;2022-09-29T04:23:34;98858.81;;;12.89;59.32
61055;BME280;46939;48.940;8.258;2022-09-29T04:26:03;98860.03;;;12.98;58.74
61055;BME280;46939;48.940;8.258;2022-09-29T04:28:34;98854.63;;;12.93;59.15
61055;BME280;46939;48.940;8.258;2022-09-29T04:31:05;98861.69;;;12.87;59.06
61055;BME280;46939;48.940;8.258;2022-09-29T04:33:34;98857.91;;;12.83;59.37
61055;BME280;46939;48.940;8.258;2022-09-29T04:36:04;98867.28;;;12.86;58.98
61055;BME280;46939;48.940;8.258;2022-09-29T04:38:33;98867.84;;;12.88;58.76
61055;BME280;46939;48.940;8.258;2022-09-29T04:41:02;98862.53;;;12.88;58.84
61055;BME280;46939;48.940;8.258;2022-09-29T04:43:30;98864.38;;;12.87;58.61
61055;BME280;46939;48.940;8.258;2022-09-29T04:46:07;98865.88;;;12.83;58.69
61055;BME280;46939;48.940;8.258;2022-09-29T04:48:35;98860.56;;;12.83;58.54
61055;BME280;46939;48.940;8.258;2022-09-29T04:51:05;98865.34;;;12.81;58.42
61055;BME280;46939;48.940;8.258;2022-09-29T04:53:35;98868.94;;;12.75;58.49
61055;BME280;46939;48.940;8.258;2022-09-29T04:56:05;98862.06;;;12.62;57.97
61055;BME280;46939;48.940;8.258;2022-09-29T04:58:33;98866.56;;;12.62;58.53
61055;BME280;46939;48.940;8.258;2022-09-29T05:01:10;98870.50;;;12.59;58.28
61055;BME280;46939;48.940;8.258;2022-09-29T05:03:40;98871.56;;;12.58;58.45
61055;BME280;46939;48.940;8.258;2022-09-29T05:06:09;98878.47;;;12.59;58.39
61055;BME280;46939;48.940;8.258;2022-09-29T05:08:37;98879.28;;;12.60;58.71
61055;BME280;46939;48.940;8.258;2022-09-29T05:11:07;98887.84;;;12.62;59.13
61055;BME280;46939;48.940;8.258;2022-09-29T05:13:36;98881.03;;;12.54;59.00
61055;BME280;46939;48.940;8.258;2022-09-29T05:16:08;98884.75;;;12.53;58.64
61055;BME280;46939;48.940;8.258;2022-09-29T05:18:36;98888.44;;;12.52;59.03
61055;BME280;46939;48.940;8.258;2022-09-29T05:21:07;98891.00;;;12.47;59.13
61055;BME280;46939;48.940;8.258;2022-09-29T05:23:36;98902.28;;;12.54;58.91
61055;BME280;46939;48.940;8.258;2022-09-29T05:26:08;98896.41;;;12.52;59.34
61055;BME280;46939;48.940;8.258;2022-09-29T05:28:38;98901.44;;;12.65;59.18
61055;BME280;46939;48.940;8.258;2022-09-29T05:31:12;98893.16;;;12.62;59.33
61055;BME280;46939;48.940;8.258;2022-09-29T05:33:40;98892.09;;;12.63;59.42
61055;BME280;46939;48.940;8.258;2022-09-29T05:36:10;98893.00;;;12.68;59.43
61055;BME280;46939;48.940;8.258;2022-09-29T05:38:39;98899.25;;;12.62;59.05
61055;BME280;46939;48.940;8.258;2022-09-29T05:41:09;98894.69;;;12.75;59.39
61055;BME280;46939;48.940;8.258;2022-09-29T05:43:39;98902.75;;;12.80;59.13
61055;BME280;46939;48.940;8.258;2022-09-29T05:46:11;98898.50;;;12.79;59.37
61055;BME280;46939;48.940;8.258;2022-09-29T05:48:39;98904.88;;;12.78;59.13
61055;BME280;46939;48.940;8.258;2022-09-29T05:51:10;98904.72;;;12.84;59.19
61055;BME280;46939;48.940;8.258;2022-09-29T05:53:40;98908.06;;;12.80;59.20
61055;BME280;46939;48.940;8.258;2022-09-29T05:56:11;98905.41;;;12.80;59.31
61055;BME280;46939;48.940;8.258;2022-09-29T05:58:40;98914.06;;;12.87;59.11
61055;BME280;46939;48.940;8.258;2022-09-29T06:01:14;98909.06;;;12.90;59.42
61055;BME280;46939;48.940;8.258;2022-09-29T06:03:49;98913.03;;;12.88;59.48
61055;BME280;46939;48.940;8.258;2022-09-29T06:06:19;98911.00;;;12.95;59.39
61055;BME280;46939;48.940;8.258;2022-09-29T06:08:49;98913.78;;;13.00;59.41
61055;BME280;46939;48.940;8.258;2022-09-29T06:11:20;98903.38;;;12.99;59.65
61055;BME280;46939;48.940;8.258;2022-09-29T06:13:50;98896.31;;;13.04;59.44
61055;BME280;46939;48.940;8.258;2022-09-29T06:16:24;98892.91;;;13.09;59.56
61055;BME280;46939;48.940;8.258;2022-09-29T06:18:53;98895.66;;;13.14;59.60
61055;BME280;46939;48.940;8.258;2022-09-29T06:21:23;98898.28;;;13.26;59.16
61055;BME280;46939;48.940;8.258;2022-09-29T06:23:53;98898.84;;;13.28;59.45
61055;BME280;46939;48.940;8.258;2022-09-29T06:26:23;98897.91;;;13.34;59.60
61055;BME280;46939;48.940;8.258;2022-09-29T06:28:52;98897.66;;;13.35;59.58
61055;BME280;46939;48.940;8.258;2022-09-29T06:31:25;98898.63;;;13.46;59.31
61055;BME280;46939;48.940;8.258;2022-09-29T06:33:55;98906.19;;;13.54;59.66
61055;BME280;46939;48.940;8.258;2022-09-29T06:36:27;98907.31;;;13.58;59.51
61055;BME280;46939;48.940;8.258;2022-09-29T06:39:12;98910.94;;;13.69;59.14
61055;BME280;46939;48.940;8.258;2022-09-29T06:41:41;98914.41;;;13.70;59.51
61055;BME280;46939;48.940;8.258;2022-09-29T06:44:13;98914.84;;;13.83;59.41
61055;BME280;46939;48.940;8.258;2022-09-29T06:46:44;98922.19;;;13.93;59.41
61055;BME280;46939;48.940;8.258;2022-09-29T06:49:13;98919.09;;;14.01;59.15
61055;BME280;46939;48.940;8.258;2022-09-29T06:51:42;98918.06;;;14.02;59.48
61055;BME280;46939;48.940;8.258;2022-09-29T06:54:11;98917.56;;;14.05;58.76
61055;BME280;46939;48.940;8.258;2022-09-29T06:56:41;98919.31;;;14.16;58.94
61055;BME280;46939;48.940;8.258;2022-09-29T06:59:10;98929.84;;;14.28;58.75
61055;BME280;46939;48.940;8.258;2022-09-29T07:01:39;98925.97;;;14.36;58.64
61055;BME280;46939;48.940;8.258;2022-09-29T07:04:10;98923.78;;;14.50;58.43
61055;BME280;46939;48.940;8.258;2022-09-29T07:06:39;98927.09;;;14.62;58.16
61055;BME280;46939;48.940;8.258;2022-09-29T07:09:07;98929.75;;;14.62;57.88
61055;BME280;46939;48.940;8.258;2022-09-29T07:11:40;98922.56;;;14.62;57.53
61055;BME280;46939;48.940;8.258;2022-09-29T07:14:11;98932.00;;;14.70;57.62
61055;BME280;46939;48.940;8.258;2022-09-29T07:16:39;98926.41;;;14.72;57.50
61055;BME280;46939;48.940;8.258;2022-09-29T07:19:11;98934.38;;;14.72;57.36
61055;BME280;46939;48.940;8.258;2022-09-29T07:21:40;98922.06;;;14.87;57.97
61055;BME280;46939;48.940;8.258;2022-09-29T07:24:08;98921.44;;;15.07;57.39
61055;BME280;46939;48.940;8.258;2022-09-29T07:26:37;98918.34;;;15.21;57.11
61055;BME280;46939;48.940;8.258;2022-09-29T07:29:06;98922.72;;;15.32;56.30
61055;BME280;46939;48.940;8.258;2022-09-29T07:31:34;98927.69;;;15.50;56.45
61055;BME280;46939;48.940;8.258;2022-09-29T07:34:03;98929.06;;;15.53;55.39
61055;BME280;46939;48.940;8.258;2022-09-29T07:36:34;98924.91;;;15.67;55.32
61055;BME280;46939;48.940;8.258;2022-09-29T07:39:03;98927.34;;;15.69;54.78
61055;BME280;46939;48.940;8.258;2022-09-29T07:41:32;98927.16;;;15.85;54.82
61055;BME280;46939;48.940;8.258;2022-09-29T07:44:01;98923.78;;;15.95;54.65
61055;BME280;46939;48.940;8.258;2022-09-29T07:46:30;98934.00;;;16.14;54.47
61055;BME280;46939;48.940;8.258;2022-09-29T07:49:00;98935.16;;;16.28;54.75
61055;BME280;46939;48.940;8.258;2022-09-29T07:51:28;98943.50;;;16.42;54.35
61055;BME280;46939;48.940;8.258;2022-09-29T07:54:03;98939.00;;;16.52;52.50
61055;BME280;46939;48.940;8.258;2022-09-29T07:56:31;98940.84;;;16.47;52.75
61055;BME280;46939;48.940;8.258;2022-09-29T07:59:00;98945.41;;;16.51;52.77
61055;BME280;46939;48.940;8.258;2022-09-29T08:01:30;98945.47;;;16.72;52.69
61055;BME280;46939;48.940;8.258;2022-09-29T08:03:59;98956.00;;;16.89;52.71
61055;BME280;46939;48.940;8.258;2022-09-29T08:06:28;98950.91;;;16.87;51.56
61055;BME280;46939;48.940;8.258;2022-09-29T08:08:58;98947.97;;;16.83;52.05
61055;BME280;46939;48.940;8.258;2022-09-29T08:11:30;98947.78;;;17.11;51.10
61055;BME280;46939;48.940;8.258;2022-09-29T08:13:59;98946.19;;;17.45;51.44
61055;BME280;46939;48.940;8.258;2022-09-29T08:16:29;98956.38;;;17.79;51.23
61055;BME280;46939;48.940;8.258;2022-09-29T08:18:57;98956.31;;;18.10;50.22
61055;BME280;46939;48.940;8.258;2022-09-29T08:21:26;98952.81;;;18.29;49.76
61055;BME280;46939;48.940;8.258;2022-09-29T08:23:56;98944.69;;;18.50;49.29
61055;BME280;46939;48.940;8.258;2022-09-29T08:26:31;98946.47;;;18.75;49.23
61055;BME280;46939;48.940;8.258;2022-09-29T08:29:00;98936.41;;;19.01;48.22
61055;BME280;46939;48.940;8.258;2022-09-29T08:31:28;98956.34;;;19.29;49.05
61055;BME280;46939;48.940;8.258;2022-09-29T08:33:58;98955.13;;;19.50;46.80
61055;BME280;46939;48.940;8.258;2022-09-29T08:36:27;98952.06;;;19.67;47.53
61055;BME280;46939;48.940;8.258;2022-09-29T08:38:56;98960.19;;;19.91;46.34
61055;BME280;46939;48.940;8.258;2022-09-29T08:41:34;98959.41;;;19.86;45.58
61055;BME280;46939;48.940;8.258;2022-09-29T08:44:10;98967.66;;;19.94;45.83
61055;BME280;46939;48.940;8.258;2022-09-29T08:46:41;98972.28;;;20.18;45.95
61055;BME280;46939;48.940;8.258;2022-09-29T08:49:13;98972.97;;;20.29;45.91
61055;BME280;46939;48.940;8.258;2022-09-29T08:51:48;98972.50;;;20.21;46.20
61055;BME280;46939;48.940;8.258;2022-09-29T08:54:24;98981.16;;;20.18;46.23
61055;BME280;46939;48.940;8.258;2022-09-29T08:56:57;98982.19;;;20.22;46.50
61055;BME280;46939;48.940;8.258;2022-09-29T08:59:27;98989.16;;;20.23;46.40
61055;BME280;46939;48.940;8.258;2022-09-29T09:02:05;98999.44;;;20.16;47.16
61055;BME280;46939;48.940;8.258;2022-09-29T09:05:02;98990.56;;;19.87;47.96
61055;BME280;46939;48.940;8.258;2022-09-29T09:07:41;98991.41;;;19.87;47.99
61055;BME280;46939;48.940;8.258;2022-09-29T09:10:22;98997.34;;;19.84;47.37
61055;BME280;46939;48.940;8.258;2022-09-29T09:13:28;98993.47;;;19.95;47.20
61055;BME280;46939;48.940;8.258;2022-09-29T09:16:12;98997.84;;;19.86;46.76
61055;BME280;46939;48.940;8.258;2022-09-29T09:21:59;99003.19;;;19.91;47.37
61055;BME280;46939;48.940;8.258;2022-09-29T09:24:35;99000.16;;;19.98;46.80
61055;BME280;46939;48.940;8.258;2022-09-29T09:27:12;98998.63;;;19.92;46.48
61055;BME280;46939;48.940;8.258;2022-09-29T09:29:46;99004.91;;;20.06;46.00
61055;BME280;46939;48.940;8.258;2022-09-29T09:32:23;99003.63;;;19.98;45.94
61055;BME280;46939;48.940;8.258;2022-09-29T09:34:56;99001.09;;;20.12;46.31
61055;BME280;46939;48.940;8.258;2022-09-29T09:37:31;99000.25;;;20.17;45.98
61055;BME280;46939;48.940;8.258;2022-09-29T09:40:05;99004.84;;;20.40;45.72
61055;BME280;46939;48.940;8.258;2022-09-29T09:42:42;98994.88;;;20.41;46.45
61055;BME280;46939;48.940;8.258;2022-09-29T09:45:21;99007.50;;;20.45;45.83
61055;BME280;46939;48.940;8.258;2022-09-29T09:47:54;99001.03;;;20.46;45.85
61055;BME280;46939;48.940;8.258;2022-09-29T09:50:27;98996.22;;;20.43;45.85
61055;BME280;46939;48.940;8.258;2022-09-29T09:52:59;99003.91;;;20.55;46.19
61055;BME280;46939;48.940;8.258;2022-09-29T09:55:30;99012.78;;;20.56;45.07
61055;BME280;46939;48.940;8.258;2022-09-29T10:01:00;99014.25;;;20.67;45.02
61055;BME280;46939;48.940;8.258;2022-09-29T10:03:30;99007.41;;;20.80;44.63
61055;BME280;46939;48.940;8.258;2022-09-29T10:05:59;98998.13;;;20.91;44.47
61055;BME280;46939;48.940;8.258;2022-09-29T10:08:29;99000.56;;;21.06;43.83
61055;BME280;46939;48.940;8.258;2022-09-29T10:11:03;99000.00;;;21.09;43.33
61055;BME280;46939;48.940;8.258;2022-09-29T10:13:33;99004.72;;;21.17;43.38
61055;BME280;46939;48.940;8.258;2022-09-29T10:16:11;99009.63;;;21.15;43.59
61055;BME280;46939;48.940;8.258;2022-09-29T10:18:42;99002.22;;;21.26;42.10
61055;BME280;46939;48.940;8.258;2022-09-29T10:21:20;98998.41;;;21.27;42.30
61055;BME280;46939;48.940;8.258;2022-09-29T10:23:50;98987.94;;;21.26;41.35
61055;BME280;46939;48.940;8.258;2022-09-29T10:26:21;98996.22;;;21.67;41.43
61055;BME280;46939;48.940;8.258;2022-09-29T10:28:52;98997.91;;;21.96;40.46
61055;BME280;46939;48.940;8.258;2022-09-29T10:31:27;99000.25;;;22.16;39.84
61055;BME280;46939;48.940;8.258;2022-09-29T10:33:57;98995.28;;;22.23;39.42
61055;BME280;46939;48.940;8.258;2022-09-29T10:36:30;98998.00;;;22.51;39.18
61055;BME280;46939;48.940;8.258;2022-09-29T10:38:59;98990.28;;;22.85;39.47
61055;BME280;46939;48.940;8.258;2022-09-29T10:41:28;98988.28;;;23.05;38.78
61055;BME280;46939;48.940;8.258;2022-09-29T10:44:17;98990.88;;;23.32;37.92
61055;BME280;46939;48.940;8.258;2022-09-29T10:46:51;98993.94;;;23.53;37.35
61055;BME280;46939;48.940;8.258;2022-09-29T10:49:21;98987.25;;;23.73;37.03
61055;BME280;46939;48.940;8.258;2022-09-29T10:51:55;98996.91;;;23.88;36.04
61055;BME280;46939;48.940;8.258;2022-09-29T10:54:26;98981.94;;;23.91;36.28
61055;BME280;46939;48.940;8.258;2022-09-29T10:56:57;98981.22;;;23.99;36.46
61055;BME280;46939;48.940;8.258;2022-09-29T10:59:26;98985.03;;;23.75;35.80
61055;BME280;46939;48.940;8.258;2022-09-29T11:02:00;98977.53;;;23.95;36.63
61055;BME280;46939;48.940;8.258;2022-09-29T11:04:31;98990.50;;;23.84;36.71
61055;BME280;46939;48.940;8.258;2022-09-29T11:07:06;98997.50;;;23.85;37.69
61055;BME280;46939;48.940;8.258;2022-09-29T11:09:38;98994.38;;;23.92;37.63
61055;BME280;46939;48.940;8.258;2022-09-29T11:12:26;98988.00;;;23.87;36.34
61055;BME280;46939;48.940;8.258;2022-09-29T11:14:56;98996.00;;;24.01;36.77
61055;BME280;46939;48.940;8.258;2022-09-29T11:17:29;98997.06;;;23.92;36.66
61055;BME280;46939;48.940;8.258;2022-09-29T11:20:00;98998.78;;;24.10;37.05
61055;BME280;46939;48.940;8.258;2022-09-29T11:22:47;99000.41;;;24.20;36.45
61055;BME280;46939;48.940;8.258;2022-09-29T11:25:28;99005.16;;;24.14;36.79
61055;BME280;46939;48.940;8.258;2022-09-29T11:28:09;99005.38;;;23.95;36.78
61055;BME280;46939;48.940;8.258;2022-09-29T11:30:52;98996.31;;;24.00;37.31
61055;BME280;46939;48.940;8.258;2022-09-29T11:33:30;98995.97;;;24.24;36.37
61055;BME280;46939;48.940;8.258;2022-09-29T11:36:08;98996.09;;;24.19;35.98
61055;BME280;46939;48.940;8.258;2022-09-29T11:39:14;98998.28;;;24.08;36.29
61055;BME280;46939;48.940;8.258;2022-09-29T11:41:56;98987.34;;;23.91;35.77
61055;BME280;46939;48.940;8.258;2022-09-29T11:44:45;98997.13;;;23.78;36.69
61055;BME280;46939;48.940;8.258;2022-09-29T11:50:22;98999.66;;;23.74;36.85
61055;BME280;46939;48.940;8.258;2022-09-29T11:53:07;99000.88;;;23.91;36.30
61055;BME280;46939;48.940;8.258;2022-09-29T11:55:55;98995.53;;;23.99;37.39
61055;BME280;46939;48.940;8.258;2022-09-29T11:58:34;98985.16;;;23.93;37.10
61055;BME280;46939;48.940;8.258;2022-09-29T12:01:25;98989.53;;;23.80;37.73
61055;BME280;46939;48.940;8.258;2022-09-29T12:04:13;98995.91;;;23.61;38.22
61055;BME280;46939;48.940;8.258;2022-09-29T12:06:55;99004.19;;;23.65;37.22
61055;BME280;46939;48.940;8.258;2022-09-29T12:09:42;99001.88;;;23.72;37.70
61055;BME280;46939;48.940;8.258;2022-09-29T12:12:18;99005.25;;;23.78;37.02
61055;BME280;46939;48.940;8.258;2022-09-29T12:15:06;99003.25;;;23.83;36.46
61055;BME280;46939;48.940;8.258;2022-09-29T12:17:41;98997.69;;;23.66;35.22
61055;BME280;46939;48.940;8.258;2022-09-29T12:20:16;99002.25;;;23.79;35.67
61055;BME280;46939;48.940;8.258;2022-09-29T12:22:51;99002.50;;;23.92;36.25
61055;BME280;46939;48.940;8.258;2022-09-29T12:25:22;99002.50;;;23.92;36.25
61055;BME280;46939;48.940;8.258;2022-09-29T12:27:54;98990.06;;;23.91;35.55
61055;BME280;46939;48.940;8.258;2022-09-29T12:30:26;98991.53;;;23.97;36.12
61055;BME280;46939;48.940;8.258;2022-09-29T12:33:01;98993.81;;;24.03;36.18
61055;BME280;46939;48.940;8.258;2022-09-29T12:35:36;98982.84;;;24.08;36.03
61055;BME280;46939;48.940;8.258;2022-09-29T12:38:14;98984.97;;;24.20;36.15
61055;BME280;46939;48.940;8.258;2022-09-29T12:40:48;98985.63;;;24.26;35.26
61055;BME280;46939;48.940;8.258;2022-09-29T12:43:23;98990.66;;;24.10;36.18
61055;BME280;46939;48.940;8.258;2022-09-29T12:45:58;98986.34;;;24.09;36.47
61055;BME280;46939;48.940;8.258;2022-09-29T12:48:41;98993.22;;;24.15;35.92
61055;BME280;46939;48.940;8.258;2022-09-29T12:51:16;98985.72;;;24.12;36.51
61055;BME280;46939;48.940;8.258;2022-09-29T12:54:01;98993.47;;;24.05;35.66
61055;BME280;46939;48.940;8.258;2022-09-29T12:56:35;98998.88;;;24.05;35.94
61055;BME280;46939;48.940;8.258;2022-09-29T12:59:08;98991.97;;;23.90;36.62
61055;BME280;46939;48.940;8.258;2022-09-29T13:01:41;98996.75;;;23.93;35.98
61055;BME280;46939;48.940;8.258;2022-09-29T13:04:40;98996.16;;;23.96;36.07
61055;BME280;46939;48.940;8.258;2022-09-29T13:07:55;98992.69;;;24.04;36.82
61055;BME280;46939;48.940;8.258;2022-09-29T13:10:53;99003.44;;;24.18;36.94
61055;BME280;46939;48.940;8.258;2022-09-29T13:16:39;98994.91;;;24.02;36.27
61055;BME280;46939;48.940;8.258;2022-09-29T13:19:32;98993.06;;;23.89;36.32
61055;BME280;46939;48.940;8.258;2022-09-29T13:22:14;99000.78;;;23.73;36.95
61055;BME280;46939;48.940;8.258;2022-09-29T13:24:52;99002.28;;;23.66;36.66
61055;BME280;46939;48.940;8.258;2022-09-29T13:27:32;99007.00;;;23.60;35.98
61055;BME280;46939;48.940;8.258;2022-09-29T13:30:07;99006.75;;;23.48;36.71
61055;BME280;46939;48.940;8.258;2022-09-29T13:32:41;99005.22;;;23.55;36.74
61055;BME280;46939;48.940;8.258;2022-09-29T13:35:13;99011.06;;;23.49;37.70
61055;BME280;46939;48.940;8.258;2022-09-29T13:37:49;99018.25;;;23.53;37.53
61055;BME280;46939;48.940;8.258;2022-09-29T13:40:22;99012.78;;;23.45;37.61
61055;BME280;46939;48.940;8.258;2022-09-29T13:42:57;99009.59;;;23.43;37.04
61055;BME280;46939;48.940;8.258;2022-09-29T13:45:39;99024.06;;;23.47;37.70